EKGH weather

Grønholt Hillerød Airport
Grønholt, Capital Region, Denmark

Public forecast

Using degrees Celsius for public forecast. Weather courtesy of forecast.io.

METAR (pilot weather report)

Closest report is Copenhagen Kastrup Airport, 21.5 nm (39.8 km) SSE. Retrieved 2019/07/18 15:20 UTC (0 seconds ago):

EKCH 181520Z AUTO 16010KT 9999 NCD 22/11 Q1012 NOSIG

TAF (pilot weather forecast)

Closest forecast is Copenhagen Kastrup Airport, 21.5 nm (39.8 km) SSE. Retrieved 2019/07/18 12:30 UTC (3 hours ago):

TAF EKCH 181109Z 1812/1912 17008KT 9999 SCT040 TEMPO 1910/1912 SHRA FEW040CB